메인 페이지
METAR-TAF:

METAR-TAF

공항 :

부다페스트, 헝가리

부다페스트 리스트 페렌츠 국제공항

위도: 47-26N, 경도: 019-16E, 고도: 151m

현재 날씨관측

예보는 23분 전, 05:30시(UTC)에 발표되었습니다.
동북동11kt
온도 1°C
습도 75%
기압 1015 hPa
시정 10km 이상
고도 2500ft 상공 구름 보통
고도 7000ft 상공 흐림
약한눈

METAR: LHBP 200530Z 07011KT 9999 -SN SCT025 OVC070 01/M03 Q1015 NOSIG

시각: 06:53 (05:53 UTC)

예보

예보는 38분 전, 05:15시(UTC)에 발표되었습니다.
예보 대상 시간: 20일 06시부터 21일 06시까지 (UTC)
동북동10kt
시정: 6000m
고도 4000ft 상공 구름 많음
고도 7000ft 상공 흐림
약한눈
일시적
20일 06시부터 20일 12시까지 (UTC)
시정: 2800m
고도 400ft 상공 구름 많음
고도 1000ft 상공 흐림
눈, 박무
일시적
20일 12시부터 20일 20시까지 (UTC)
시정: 1200m
고도 200ft 상공 흐림
눈, 박무
일시적
20일 20시부터 21일 06시까지 (UTC)
시정: 1400m
고도 400ft 상공 흐림
눈, 박무

TAF: LHBP 200515Z 2006/2106 06010KT 6000 -SN BKN040 OVC070 TEMPO 2006/2012 2800 SN BR BKN004 OVC010 TEMPO 2012/2020 1200 SN BR OVC002 TEMPO 2020/2106 1400 SN BR OVC004

4,000개 이상의 공항 관측 자료 및 예보 (METAR 및 TAF 보고).

지도상에서 검색 가능한 기상관측소가 노란 점과 빨간 점으로 표시되어 있습니다.

기상관측소 명을 보려면 표시 위로 마우스를 이동하세요.

날씨 관측과 예보를 보려면 클릭하세요.

지도 변경 : 확대하려면 엑스 표시가 있는 녹색 버튼, 축소하려면 빼기 표시가 있는 녹색 버튼, 다음 페이지의 지도를 보려면 녹색 화살표를 클릭하세요.


METAR-TAF: